Kezdőlap
METAR-TAF:

METAR-TAF

Repülőterek :

Branch County Memorial Airport

Coldwater, Michigan, Amerikai Egyesült Államok

földrajzi szélesség: 41-56N, földrajzi hosszúság: 085-03-09W, magasság: 292 m

Jelenlegi meteorológiai megfigyelések

A jelentés 26 perccel ezelõtt készült, 09:55 UTC
Szélcsend
Hőmérséklet 15°C
Páratartalom 94%
Légköri nyomás 1020 hPa
Látótávolság: 11.3 km
Derült ég

METAR: KOEB 210955Z AUTO 00000KT 7SM CLR 15/14 A3013 RMK AO2 T01500144

Idő: 06:21 (10:21 UTC)


TAF: hiányzik

Meteorológiai megfigyelések és előrejelzések több, mint 4000 repülőtéren (METAR és TAF jelentéseket).

A térképen piros és sárga pontok jelzik az elérhető meteorológiai állomásokat.

Mozgassa az egeret a pont fölött, hogy megjelenjen az állomás neve.

Azután kattintson az időjárási megfigyelések és előrejelzések megtekintéséhez.

A térkép megváltoztatása: kattintson a fekete keresztel jelölt zöld gombra ráközelítéshez, a vonallal jelölt zöld gombra távolításhoz, vagy a zöld nyilakra a szomszédos térképek eléréséhez.


METAR-TAF: